createdAt,value
2023-03-18T00:02:12.084Z,96580.47
2023-03-18T00:05:00.550Z,96578.88
2023-03-18T00:07:50.510Z,96573.28
2023-03-18T00:10:39.746Z,96583.88
2023-03-18T00:13:28.430Z,96578.25
2023-03-18T00:16:17.396Z,96583.84
2023-03-18T00:19:06.776Z,96588.06
2023-03-18T00:21:55.880Z,96594.50
2023-03-18T00:24:46.021Z,96579.34
2023-03-18T00:27:35.069Z,96586.00
2023-03-18T00:30:23.986Z,96587.03
2023-03-18T00:33:12.809Z,96588.41
2023-03-18T00:36:01.205Z,96599.34
2023-03-18T00:38:51.174Z,96598.53
2023-03-18T00:41:41.145Z,96597.72
2023-03-18T00:44:30.759Z,96605.41
2023-03-18T00:47:19.174Z,96604.91
2023-03-18T00:50:09.448Z,96596.13
2023-03-18T00:52:57.781Z,96607.31
2023-03-18T00:55:46.548Z,96612.06
2023-03-18T00:58:36.925Z,96614.97
2023-03-18T01:01:27.323Z,96613.69
2023-03-18T01:04:15.772Z,96608.91
2023-03-18T01:07:04.179Z,96602.00
2023-03-18T01:09:52.753Z,96608.41
2023-03-18T01:12:42.179Z,96610.78
2023-03-18T01:15:31.942Z,96606.53
2023-03-18T01:18:20.781Z,96605.19
2023-03-18T01:21:09.802Z,96610.50
2023-03-18T01:24:04.422Z,96604.69
2023-03-18T01:26:55.043Z,96617.94
2023-03-18T01:29:44.311Z,96609.16
2023-03-18T01:32:39.134Z,96612.09
2023-03-18T01:35:28.472Z,96610.78
2023-03-18T01:38:17.438Z,96605.72
2023-03-18T01:41:06.134Z,96606.78
2023-03-18T01:43:55.631Z,96614.50
2023-03-18T01:46:45.944Z,96606.78
2023-03-18T01:49:38.196Z,96620.88
2023-03-18T01:52:28.841Z,96615.25
2023-03-18T01:55:20.595Z,96614.09
2023-03-18T01:58:11.744Z,96624.13
2023-03-18T02:01:02.954Z,96619.28
2023-03-18T02:03:52.329Z,96621.94
2023-03-18T02:06:42.380Z,96622.34
2023-03-18T02:09:31.289Z,96622.91
2023-03-18T02:12:24.255Z,96620.31
2023-03-18T02:15:16.605Z,96624.25
2023-03-18T02:18:09.108Z,96625.47
2023-03-18T02:21:18.999Z,96630.25
2023-03-18T02:24:21.010Z,96644.00
2023-03-18T02:27:19.380Z,96634.41
2023-03-18T02:30:13.044Z,96642.16
2023-03-18T02:33:02.916Z,96627.91
2023-03-18T02:35:53.985Z,96632.97
2023-03-18T02:38:43.254Z,96645.44
2023-03-18T02:41:36.417Z,96638.09
2023-03-18T02:44:27.019Z,96650.22
2023-03-18T02:47:33.768Z,96643.59
2023-03-18T02:50:22.404Z,96640.78
2023-03-18T02:53:13.171Z,96651.97
2023-03-18T02:56:02.169Z,96647.09
2023-03-18T02:58:51.831Z,96649.19
2023-03-18T03:01:43.855Z,96654.22
2023-03-18T03:04:33.025Z,96655.91
2023-03-18T03:07:21.498Z,96661.06
2023-03-18T03:10:14.690Z,96660.91
2023-03-18T03:13:04.592Z,96658.53
2023-03-18T03:15:54.242Z,96665.25
2023-03-18T03:18:44.532Z,96675.59
2023-03-18T03:21:33.513Z,96664.91
2023-03-18T03:24:22.356Z,96685.78
2023-03-18T03:27:11.076Z,96673.97
2023-03-18T03:29:59.497Z,96679.13
2023-03-18T03:32:48.399Z,96674.16
2023-03-18T03:35:40.054Z,96685.03
2023-03-18T03:38:28.498Z,96687.31
2023-03-18T03:41:17.182Z,96688.28
2023-03-18T03:44:06.272Z,96699.66
2023-03-18T03:46:55.377Z,96687.72
2023-03-18T03:49:44.604Z,96694.16
2023-03-18T03:52:35.100Z,96693.59
2023-03-18T03:55:24.241Z,96686.81
2023-03-18T03:58:15.192Z,96696.78
2023-03-18T04:01:06.649Z,96698.69
2023-03-18T04:03:55.812Z,96696.06
2023-03-18T04:06:44.397Z,96706.66
2023-03-18T04:09:36.243Z,96706.00
2023-03-18T04:12:25.300Z,96700.72
2023-03-18T04:15:22.091Z,96698.03
2023-03-18T04:18:13.341Z,96702.53
2023-03-18T04:21:02.896Z,96707.91
2023-03-18T04:24:00.923Z,96695.34
2023-03-18T04:26:51.412Z,96698.66
2023-03-18T04:29:39.813Z,96707.91
2023-03-18T04:32:28.414Z,96716.84
2023-03-18T04:35:17.501Z,96716.34
2023-03-18T04:38:06.550Z,96713.84
2023-03-18T04:40:55.286Z,96712.34
2023-03-18T04:43:45.687Z,96711.50
2023-03-18T04:46:34.141Z,96718.09
2023-03-18T04:49:23.380Z,96711.25
2023-03-18T04:52:12.580Z,96719.84
2023-03-18T04:55:01.704Z,96713.91
2023-03-18T04:57:51.187Z,96714.06
2023-03-18T05:00:45.206Z,96726.88
2023-03-18T05:03:44.278Z,96724.38
2023-03-18T05:06:34.673Z,96719.97
2023-03-18T05:09:31.438Z,96730.84
2023-03-18T05:12:20.870Z,96728.53
2023-03-18T05:15:11.963Z,96723.94
2023-03-18T05:18:06.516Z,96713.16
2023-03-18T05:20:55.568Z,96719.13
2023-03-18T05:23:45.472Z,96719.13
2023-03-18T05:26:34.178Z,96718.44
2023-03-18T05:29:23.912Z,96723.19
2023-03-18T05:32:19.629Z,96719.22
2023-03-18T05:35:14.601Z,96724.53
2023-03-18T05:38:11.153Z,96728.13
2023-03-18T05:40:59.742Z,96730.09
2023-03-18T05:43:54.727Z,96737.59
2023-03-18T05:46:43.301Z,96732.31
2023-03-18T05:49:39.360Z,96729.78
2023-03-18T05:52:42.946Z,96732.88
2023-03-18T05:55:39.986Z,96730.84
2023-03-18T05:58:31.293Z,96737.22
2023-03-18T06:01:34.462Z,96738.63
2023-03-18T06:04:24.975Z,96740.09
2023-03-18T06:07:15.241Z,96733.28
2023-03-18T06:10:05.557Z,96735.25
2023-03-18T06:12:55.409Z,96739.09
2023-03-18T06:15:45.644Z,96734.59
2023-03-18T06:18:35.321Z,96737.22
2023-03-18T06:21:23.706Z,96736.31
2023-03-18T06:24:13.327Z,96739.16
2023-03-18T06:27:03.781Z,96738.03
2023-03-18T06:29:52.484Z,96743.94
2023-03-18T06:32:41.483Z,96743.50
2023-03-18T06:35:31.672Z,96753.84
2023-03-18T06:38:20.883Z,96746.06
2023-03-18T06:41:09.700Z,96750.03
2023-03-18T06:44:04.193Z,96757.56
2023-03-18T06:46:53.718Z,96753.44
2023-03-18T06:49:43.486Z,96751.94
2023-03-18T06:52:38.426Z,96754.38
2023-03-18T06:55:32.326Z,96751.63
2023-03-18T06:58:21.278Z,96743.13
2023-03-18T07:01:21.439Z,96741.31
2023-03-18T07:04:11.996Z,96754.75
2023-03-18T07:07:01.460Z,96756.63
2023-03-18T07:09:50.788Z,96756.69
2023-03-18T07:12:40.270Z,96756.16
2023-03-18T07:15:28.941Z,96765.34
2023-03-18T07:18:20.491Z,96756.47
2023-03-18T07:21:09.663Z,96769.81
2023-03-18T07:23:58.262Z,96759.81
2023-03-18T07:26:46.612Z,96763.06
2023-03-18T07:29:35.118Z,96770.53
2023-03-18T07:32:23.694Z,96764.19
2023-03-18T07:35:14.784Z,96761.31
2023-03-18T07:38:03.318Z,96762.69
2023-03-18T07:40:52.434Z,96766.94
2023-03-18T07:43:41.093Z,96769.06
2023-03-18T07:46:29.622Z,96773.34
2023-03-18T07:49:20.603Z,96780.31
2023-03-18T07:52:11.020Z,96770.22
2023-03-18T07:54:59.579Z,96769.16
2023-03-18T07:57:49.157Z,96766.75
2023-03-18T08:00:37.980Z,96774.19
2023-03-18T08:03:26.420Z,96779.53
2023-03-18T08:06:16.292Z,96779.75
2023-03-18T08:09:09.048Z,96780.00
2023-03-18T08:11:57.645Z,96789.34
2023-03-18T08:14:46.055Z,96790.38
2023-03-18T08:17:34.521Z,96797.25
2023-03-18T08:20:23.317Z,96793.47
2023-03-18T08:23:12.094Z,96788.56
2023-03-18T08:26:02.056Z,96785.84
2023-03-18T08:28:50.665Z,96782.25
2023-03-18T08:31:39.222Z,96787.25
2023-03-18T08:34:27.733Z,96777.03
2023-03-18T08:37:16.085Z,96772.44
2023-03-18T08:40:05.169Z,96784.88
2023-03-18T08:42:55.027Z,96777.28
2023-03-18T08:45:43.560Z,96772.59
2023-03-18T08:48:32.218Z,96777.56
2023-03-18T08:51:22.216Z,96784.13
2023-03-18T08:54:11.414Z,96778.69
2023-03-18T08:57:00.686Z,96783.63
2023-03-18T08:59:50.595Z,96783.25
2023-03-18T09:02:38.964Z,96777.22
2023-03-18T09:05:27.583Z,96781.59
2023-03-18T09:08:16.149Z,96784.13
2023-03-18T09:11:04.616Z,96769.38
2023-03-18T09:13:53.718Z,96777.13
2023-03-18T09:16:43.777Z,96778.25
2023-03-18T09:19:32.180Z,96772.94
2023-03-18T09:22:20.655Z,96781.94
2023-03-18T09:25:09.730Z,96776.41
2023-03-18T09:27:58.138Z,96780.53
2023-03-18T09:30:47.081Z,96778.69
2023-03-18T09:33:37.756Z,96780.63
2023-03-18T09:36:26.101Z,96774.00
2023-03-18T09:39:14.526Z,96769.53
2023-03-18T09:42:17.098Z,96765.31
2023-03-18T09:45:12.530Z,96772.69
2023-03-18T09:48:16.862Z,96772.69
2023-03-18T09:51:12.165Z,96774.13
2023-03-18T09:54:03.633Z,96774.03
2023-03-18T09:56:53.425Z,96778.00
2023-03-18T09:59:44.747Z,96771.03
2023-03-18T10:02:37.251Z,96779.28
2023-03-18T10:05:30.774Z,96774.97
2023-03-18T10:08:23.532Z,96771.78
2023-03-18T10:11:18.654Z,96766.50
2023-03-18T10:14:38.840Z,96766.91
2023-03-18T10:17:31.661Z,96765.41
2023-03-18T10:20:21.971Z,96766.81
2023-03-18T10:23:21.526Z,96767.56
2023-03-18T10:26:17.521Z,96764.63
2023-03-18T10:29:30.577Z,96762.31
2023-03-18T10:32:46.462Z,96769.22
2023-03-18T10:35:39.926Z,96769.63
2023-03-18T10:38:31.894Z,96770.50
2023-03-18T10:41:24.937Z,96771.72
2023-03-18T10:44:19.818Z,96769.09
2023-03-18T10:47:15.420Z,96763.63
2023-03-18T10:50:07.088Z,96766.53
2023-03-18T10:52:58.272Z,96763.88
2023-03-18T10:55:57.439Z,96759.28
2023-03-18T10:58:47.253Z,96746.34
2023-03-18T11:01:37.484Z,96747.31
2023-03-18T11:04:28.465Z,96745.72
2023-03-18T11:07:19.808Z,96745.94
2023-03-18T11:10:18.094Z,96741.06
2023-03-18T11:13:07.856Z,96735.97
2023-03-18T11:15:58.669Z,96729.31
2023-03-18T11:18:47.682Z,96725.34
2023-03-18T11:21:39.117Z,96712.81
2023-03-18T11:24:38.775Z,96716.03
2023-03-18T11:27:35.481Z,96711.88
2023-03-18T11:30:34.454Z,96711.38
2023-03-18T11:33:26.984Z,96700.16
2023-03-18T11:36:19.352Z,96696.34
2023-03-18T11:39:08.153Z,96704.56
2023-03-18T11:41:56.607Z,96702.19
2023-03-18T11:44:45.031Z,96699.44
2023-03-18T11:47:36.558Z,96699.06
2023-03-18T11:50:27.493Z,96687.75
2023-03-18T11:53:18.689Z,96667.59
2023-03-18T11:56:12.645Z,96664.69
2023-03-18T11:59:18.716Z,96675.25
2023-03-18T12:02:32.198Z,96666.19
2023-03-18T12:05:35.727Z,96664.63
2023-03-18T12:08:33.050Z,96656.94
2023-03-18T12:11:41.215Z,96659.59
2023-03-18T12:14:36.272Z,96647.41
2023-03-18T12:17:32.916Z,96644.53
2023-03-18T12:20:44.818Z,96638.91
2023-03-18T12:23:44.018Z,96636.25
2023-03-18T12:26:36.480Z,96627.72
2023-03-18T12:29:37.042Z,96626.63
2023-03-18T12:32:28.183Z,96624.03
2023-03-18T12:35:39.749Z,96622.88
2023-03-18T12:39:00.576Z,96628.09
2023-03-18T12:41:54.794Z,96630.25
2023-03-18T12:44:59.659Z,96626.31
2023-03-18T12:47:50.794Z,96625.97
2023-03-18T12:50:41.155Z,96619.06
2023-03-18T12:53:31.851Z,96622.69
2023-03-18T12:56:23.690Z,96625.28
2023-03-18T12:59:16.578Z,96618.19
2023-03-18T13:02:38.644Z,96613.03
2023-03-18T13:05:36.815Z,96613.94
2023-03-18T13:08:56.584Z,96618.53
2023-03-18T13:11:55.652Z,96615.91
2023-03-18T13:14:56.377Z,96619.75
2023-03-18T13:17:45.990Z,96623.03
2023-03-18T13:20:37.741Z,96626.19
2023-03-18T13:23:42.451Z,96613.53
2023-03-18T13:26:43.476Z,96616.16
2023-03-18T13:29:39.008Z,96616.25
2023-03-18T13:32:42.134Z,96607.69
2023-03-18T13:35:44.920Z,96610.41
2023-03-18T13:39:01.185Z,96614.47
2023-03-18T13:41:59.736Z,96608.34
2023-03-18T13:44:55.304Z,96606.88
2023-03-18T13:47:44.492Z,96607.09
2023-03-18T13:50:35.933Z,96602.66
2023-03-18T13:53:26.649Z,96600.13
2023-03-18T13:56:29.023Z,96603.16
2023-03-18T13:59:44.669Z,96593.03
2023-03-18T14:02:43.707Z,96590.72
2023-03-18T14:05:40.385Z,96581.91
2023-03-18T14:08:50.745Z,96589.78
2023-03-18T14:11:50.257Z,96588.72
2023-03-18T14:15:02.920Z,96585.28
2023-03-18T14:17:58.215Z,96587.22
2023-03-18T14:20:47.818Z,96587.16
2023-03-18T14:23:43.290Z,96577.16
2023-03-18T14:26:32.341Z,96587.59
2023-03-18T14:29:26.663Z,96581.38
2023-03-18T14:32:32.074Z,96581.31
2023-03-18T14:35:28.794Z,96567.00
2023-03-18T14:38:20.446Z,96578.66
2023-03-18T14:41:16.769Z,96547.81
2023-03-18T14:44:10.149Z,96552.25
2023-03-18T14:47:01.145Z,96560.22
2023-03-18T14:49:52.138Z,96561.31
2023-03-18T14:52:43.807Z,96546.56
2023-03-18T14:55:34.173Z,96546.34
2023-03-18T14:58:24.223Z,96544.69
2023-03-18T15:01:14.061Z,96550.53
2023-03-18T15:04:03.082Z,96550.78
2023-03-18T15:06:53.216Z,96546.13
2023-03-18T15:09:46.357Z,96546.16
2023-03-18T15:12:34.780Z,96546.31
2023-03-18T15:15:25.144Z,96542.88
2023-03-18T15:18:19.664Z,96540.22
2023-03-18T15:21:11.516Z,96538.69
2023-03-18T15:24:01.962Z,96540.44
2023-03-18T15:26:59.098Z,96540.41
2023-03-18T15:29:52.628Z,96531.81
2023-03-18T15:32:46.138Z,96531.72
2023-03-18T15:35:35.705Z,96532.50
2023-03-18T15:38:28.783Z,96535.28
2023-03-18T15:41:18.027Z,96537.66
2023-03-18T15:44:16.504Z,96540.06
2023-03-18T15:47:07.473Z,96535.31
2023-03-18T15:49:57.594Z,96539.25
2023-03-18T15:52:47.077Z,96532.91
2023-03-18T15:55:37.538Z,96531.34
2023-03-18T15:58:27.899Z,96526.56
2023-03-18T16:01:19.683Z,96534.47
2023-03-18T16:04:12.297Z,96535.09
2023-03-18T16:07:01.146Z,96535.25
2023-03-18T16:09:51.171Z,96536.53
2023-03-18T16:12:41.063Z,96535.34
2023-03-18T16:15:30.022Z,96537.22
2023-03-18T16:18:20.049Z,96531.94
2023-03-18T16:21:08.908Z,96543.06
2023-03-18T16:23:57.298Z,96551.41
2023-03-18T16:26:46.261Z,96547.69
2023-03-18T16:29:38.196Z,96554.91
2023-03-18T16:32:28.497Z,96554.66
2023-03-18T16:35:20.455Z,96551.66
2023-03-18T16:38:14.236Z,96549.09
2023-03-18T16:41:03.027Z,96553.34
2023-03-18T16:43:51.489Z,96552.69
2023-03-18T16:46:41.316Z,96557.31
2023-03-18T16:49:31.909Z,96556.72
2023-03-18T16:52:21.837Z,96560.25
2023-03-18T16:55:13.289Z,96559.13
2023-03-18T16:58:01.812Z,96558.16
2023-03-18T17:00:51.262Z,96552.19
2023-03-18T17:03:39.984Z,96556.69
2023-03-18T17:06:28.388Z,96560.72
2023-03-18T17:09:18.136Z,96564.22
2023-03-18T17:12:07.655Z,96568.84
2023-03-18T17:14:57.175Z,96573.38
2023-03-18T17:17:45.890Z,96576.94
2023-03-18T17:20:34.791Z,96573.38
2023-03-18T17:23:25.383Z,96576.16
2023-03-18T17:26:16.250Z,96581.63
2023-03-18T17:29:04.990Z,96581.19
2023-03-18T17:31:53.752Z,96589.69
2023-03-18T17:34:42.181Z,96597.72
2023-03-18T17:37:30.573Z,96590.72
2023-03-18T17:40:20.552Z,96592.66
2023-03-18T17:43:18.640Z,96597.28
2023-03-18T17:46:07.180Z,96602.38
2023-03-18T17:48:56.069Z,96603.59
2023-03-18T17:51:46.221Z,96605.84
2023-03-18T17:54:34.700Z,96607.16
2023-03-18T17:57:23.025Z,96601.19
2023-03-18T18:00:17.954Z,96599.03
2023-03-18T18:03:11.013Z,96600.00
2023-03-18T18:06:00.371Z,96598.72
2023-03-18T18:08:49.833Z,96582.91
2023-03-18T18:11:39.720Z,96594.16
2023-03-18T18:14:31.760Z,96590.38
2023-03-18T18:17:21.976Z,96595.91
2023-03-18T18:20:14.877Z,96592.47
2023-03-18T18:23:03.308Z,96589.69
2023-03-18T18:25:51.699Z,96592.31
2023-03-18T18:28:41.673Z,96586.38
2023-03-18T18:31:34.085Z,96588.59
2023-03-18T18:34:24.065Z,96597.53
2023-03-18T18:37:12.768Z,96591.75
2023-03-18T18:40:01.386Z,96595.78
2023-03-18T18:42:50.541Z,96590.38
2023-03-18T18:45:38.914Z,96592.16
2023-03-18T18:48:30.631Z,96589.84
2023-03-18T18:51:22.604Z,96593.50
2023-03-18T18:54:10.940Z,96584.66
2023-03-18T18:56:59.312Z,96591.50
2023-03-18T18:59:47.664Z,96583.28
2023-03-18T19:02:36.811Z,96580.31
2023-03-18T19:05:25.191Z,96591.72
2023-03-18T19:08:24.890Z,96600.00
2023-03-18T19:11:13.844Z,96585.91
2023-03-18T19:14:19.749Z,96597.66
2023-03-18T19:17:13.519Z,96591.97
2023-03-18T19:20:02.080Z,96601.78
2023-03-18T19:22:51.116Z,96603.06
2023-03-18T19:25:40.905Z,96600.53
2023-03-18T19:28:47.862Z,96603.38
2023-03-18T19:31:41.295Z,96602.13
2023-03-18T19:34:31.964Z,96598.81
2023-03-18T19:37:22.804Z,96603.56
2023-03-18T19:40:21.339Z,96604.84
2023-03-18T19:43:18.821Z,96603.28
2023-03-18T19:46:07.327Z,96605.31
2023-03-18T19:48:55.845Z,96606.25
2023-03-18T19:51:44.735Z,96607.84
2023-03-18T19:54:34.897Z,96606.88
2023-03-18T19:57:25.686Z,96617.81
2023-03-18T20:00:21.984Z,96609.59
2023-03-18T20:03:14.012Z,96619.72
2023-03-18T20:06:02.896Z,96616.69
2023-03-18T20:08:51.529Z,96624.75
2023-03-18T20:11:40.089Z,96616.03
2023-03-18T20:14:31.271Z,96606.50
2023-03-18T20:17:39.667Z,96614.25
2023-03-18T20:20:30.333Z,96617.03
2023-03-18T20:23:22.294Z,96626.66
2023-03-18T20:26:10.877Z,96628.38
2023-03-18T20:28:59.242Z,96642.53
2023-03-18T20:31:47.913Z,96640.22
2023-03-18T20:34:38.727Z,96642.59
2023-03-18T20:37:31.052Z,96643.53
2023-03-18T20:40:22.852Z,96642.84
2023-03-18T20:43:15.039Z,96638.88
2023-03-18T20:46:03.985Z,96634.13
2023-03-18T20:48:53.647Z,96639.28
2023-03-18T20:51:44.317Z,96635.94
2023-03-18T20:54:33.300Z,96648.22
2023-03-18T20:57:21.717Z,96645.44
2023-03-18T21:00:14.616Z,96635.31
2023-03-18T21:03:03.806Z,96639.78
2023-03-18T21:05:53.221Z,96630.56
2023-03-18T21:08:43.558Z,96639.41
2023-03-18T21:11:33.618Z,96632.53
2023-03-18T21:14:22.247Z,96633.13
2023-03-18T21:17:17.948Z,96626.06
2023-03-18T21:20:21.064Z,96630.72
2023-03-18T21:23:18.962Z,96625.38
2023-03-18T21:26:09.164Z,96631.75
2023-03-18T21:28:58.460Z,96628.56
2023-03-18T21:31:46.998Z,96630.53
2023-03-18T21:34:35.358Z,96635.69
2023-03-18T21:37:24.990Z,96635.09
2023-03-18T21:40:18.579Z,96628.34
2023-03-18T21:43:25.381Z,96638.28
2023-03-18T21:46:16.178Z,96638.69
2023-03-18T21:49:05.940Z,96638.69
2023-03-18T21:51:54.359Z,96630.31
2023-03-18T21:54:42.692Z,96636.00
2023-03-18T21:57:34.913Z,96638.44
2023-03-18T22:00:24.888Z,96638.16
2023-03-18T22:03:14.918Z,96640.56
2023-03-18T22:06:03.299Z,96645.84
2023-03-18T22:08:52.229Z,96643.53
2023-03-18T22:11:40.607Z,96640.94
2023-03-18T22:14:29.005Z,96633.50
2023-03-18T22:17:24.036Z,96636.16
2023-03-18T22:20:13.941Z,96634.41
2023-03-18T22:23:02.678Z,96632.66
2023-03-18T22:25:52.342Z,96628.81
2023-03-18T22:28:40.711Z,96633.09
2023-03-18T22:31:29.183Z,96638.69
2023-03-18T22:34:22.988Z,96639.44
2023-03-18T22:37:16.055Z,96635.69
2023-03-18T22:40:05.594Z,96641.06
2023-03-18T22:42:56.614Z,96631.94
2023-03-18T22:45:45.096Z,96631.41
2023-03-18T22:48:33.621Z,96630.34
2023-03-18T22:51:25.973Z,96638.97
2023-03-18T22:54:17.342Z,96633.63
2023-03-18T22:57:05.872Z,96637.28
2023-03-18T22:59:54.597Z,96640.63
2023-03-18T23:02:43.060Z,96639.84
2023-03-18T23:05:32.769Z,96646.34
2023-03-18T23:08:22.977Z,96645.91
2023-03-18T23:11:11.478Z,96643.75
2023-03-18T23:13:59.853Z,96636.81
2023-03-18T23:16:48.216Z,96641.56
2023-03-18T23:19:36.573Z,96642.09
2023-03-18T23:22:27.061Z,96637.25
2023-03-18T23:25:18.159Z,96642.03
2023-03-18T23:28:06.682Z,96644.13
2023-03-18T23:30:55.040Z,96644.06
2023-03-18T23:33:43.936Z,96635.53
2023-03-18T23:36:32.732Z,96636.84
2023-03-18T23:39:21.386Z,96639.19
2023-03-18T23:42:12.613Z,96644.28
2023-03-18T23:45:01.039Z,96645.59
2023-03-18T23:47:49.352Z,96642.31
2023-03-18T23:50:37.730Z,96647.69
2023-03-18T23:53:26.417Z,96642.91
2023-03-18T23:56:15.042Z,96643.41
2023-03-18T23:59:04.833Z,96641.53
